Time;durP1;ratioP1;P1;durP2;ratioP2;P2;SDS_P1;SDS_P2;PMS_P1;PMS_P2;Temp;Humidity;BMP_temperature;BMP_pressure;BME280_temperature;BME280_humidity;BME280_pressure;Samples;Min_cycle;Max_cycle;Signal;HPM_P1;HPM_P2
2021/04/15 00:01:40;;;;;;;8.00;5.87;;;5.70;61.40;;;;;;5028325;28;20485;-83
2021/04/15 00:04:07;;;;;;;8.27;5.40;;;5.70;61.00;;;;;;5020280;28;20105;-82
2021/04/15 00:06:34;;;;;;;9.83;6.70;;;5.80;60.90;;;;;;5031015;28;20034;-83
2021/04/15 00:09:05;;;;;;;7.63;5.43;;;5.80;60.70;;;;;;5034239;28;20029;-82
2021/04/15 00:11:33;;;;;;;7.00;5.40;;;5.80;60.70;;;;;;5032663;28;20034;-82
2021/04/15 00:14:00;;;;;;;11.30;5.67;;;5.80;60.80;;;;;;5033829;28;20416;-82
2021/04/15 00:16:29;;;;;;;8.77;6.07;;;5.90;60.70;;;;;;5033620;28;20461;-82
2021/04/15 00:18:55;;;;;;;11.10;6.40;;;6.00;61.10;;;;;;5031205;28;20440;-82
2021/04/15 00:21:21;;;;;;;9.97;6.17;;;6.00;60.40;;;;;;5029547;28;20121;-83
2021/04/15 00:23:47;;;;;;;8.40;5.63;;;6.10;60.20;;;;;;5024468;28;20060;-82
2021/04/15 00:26:15;;;;;;;8.50;5.20;;;6.10;60.20;;;;;;5033412;28;20052;-82
2021/04/15 00:28:41;;;;;;;10.60;5.10;;;6.00;60.00;;;;;;5031598;28;20029;-83
2021/04/15 00:31:08;;;;;;;7.27;5.60;;;6.00;59.70;;;;;;5032778;28;20029;-82
2021/04/15 00:33:34;;;;;;;7.60;4.77;;;5.90;59.70;;;;;;5035368;28;20492;-82
2021/04/15 00:36:00;;;;;;;9.83;5.40;;;5.90;59.70;;;;;;5027501;28;20034;-82
2021/04/15 00:38:27;;;;;;;9.03;6.80;;;5.90;59.70;;;;;;5019823;28;20026;-82
2021/04/15 00:40:55;;;;;;;10.37;7.63;;;5.80;60.00;;;;;;5026713;28;20496;-82
2021/04/15 00:43:23;;;;;;;13.00;6.83;;;5.80;60.20;;;;;;5031928;28;20025;-82
2021/04/15 00:45:49;;;;;;;10.83;7.97;;;5.90;60.40;;;;;;5034968;28;20129;-82
2021/04/15 00:48:18;;;;;;;9.47;6.80;;;5.90;60.50;;;;;;5028496;28;20034;-82
2021/04/15 00:50:52;;;;;;;7.57;5.73;;;5.90;60.60;;;;;;5031725;28;20384;-82
2021/04/15 00:53:24;;;;;;;10.23;5.10;;;5.90;60.70;;;;;;5033563;28;20096;-82
2021/04/15 00:55:50;;;;;;;6.70;5.10;;;5.80;60.30;;;;;;5031367;28;20029;-82
2021/04/15 00:58:16;;;;;;;6.53;5.53;;;5.80;60.10;;;;;;5027458;28;20022;-82
2021/04/15 01:00:43;;;;;;;10.40;6.17;;;5.80;60.00;;;;;;5028394;28;20025;-82
2021/04/15 01:03:09;;;;;;;7.57;6.13;;;5.70;60.10;;;;;;5032122;28;20511;-83
2021/04/15 01:05:42;;;;;;;11.23;6.43;;;5.70;60.30;;;;;;5032655;28;20081;-83
2021/04/15 01:08:08;;;;;;;8.07;6.28;;;5.70;60.50;;;;;;5033555;28;20374;-83
2021/04/15 01:10:39;;;;;;;9.73;7.00;;;5.70;60.50;;;;;;5031095;28;20551;-83
2021/04/15 01:13:13;;;;;;;10.03;7.23;;;5.70;60.80;;;;;;5026611;28;20028;-83
2021/04/15 01:16:07;;;;;;;10.53;7.47;;;5.70;60.90;;;;;;5031357;28;20034;-82
2021/04/15 01:18:42;;;;;;;10.80;7.17;;;5.70;61.10;;;;;;5031587;28;20026;-82
2021/04/15 01:21:30;;;;;;;9.70;7.00;;;5.70;61.20;;;;;;5031362;28;20112;-83
2021/04/15 01:24:15;;;;;;;10.27;7.37;;;5.70;61.20;;;;;;5019844;28;20099;-83
2021/04/15 01:27:11;;;;;;;10.20;6.40;;;5.70;61.20;;;;;;5029039;28;20116;-82
2021/04/15 01:29:49;;;;;;;8.07;5.77;;;5.60;61.20;;;;;;5031650;28;20029;-83
2021/04/15 01:32:33;;;;;;;7.83;5.50;;;5.60;61.20;;;;;;5028581;28;20022;-83
2021/04/15 01:35:11;;;;;;;8.07;6.67;;;5.60;60.90;;;;;;5030802;28;20504;-82
2021/04/15 01:38:14;;;;;;;10.00;6.90;;;5.50;60.80;;;;;;5028014;28;20034;-83
2021/04/15 01:40:58;;;;;;;13.05;6.95;;;5.50;60.90;;;;;;5019576;28;20378;-82
2021/04/15 01:43:43;;;;;;;9.57;7.17;;;5.50;61.10;;;;;;5031154;28;20068;-82
2021/04/15 01:46:10;;;;;;;8.93;6.93;;;5.50;61.10;;;;;;5031044;28;20034;-82
2021/04/15 01:48:47;;;;;;;7.57;5.83;;;5.50;61.20;;;;;;5031000;28;20057;-82
2021/04/15 01:51:22;;;;;;;6.67;5.10;;;5.60;61.10;;;;;;5032558;28;20025;-82
2021/04/15 01:54:04;;;;;;;9.73;5.07;;;5.60;60.60;;;;;;5030450;28;20073;-83
2021/04/15 01:56:46;;;;;;;7.57;4.83;;;5.60;60.10;;;;;;5039946;28;20405;-83
2021/04/15 01:59:26;;;;;;;6.00;5.07;;;5.60;59.80;;;;;;5023278;28;20026;-83
2021/04/15 02:01:57;;;;;;;6.77;4.70;;;5.60;59.80;;;;;;5024008;28;20091;-82
2021/04/15 02:04:28;;;;;;;7.53;5.77;;;5.70;59.80;;;;;;5029755;28;21846;-82
2021/04/15 02:06:59;;;;;;;9.20;6.13;;;5.70;59.80;;;;;;5032348;28;20096;-82
2021/04/15 02:09:26;;;;;;;7.73;5.73;;;5.70;59.80;;;;;;5031438;28;20022;-82
2021/04/15 02:11:57;;;;;;;7.60;5.40;;;5.70;59.80;;;;;;5028879;28;20032;-83
2021/04/15 02:14:27;;;;;;;7.23;5.47;;;5.80;59.80;;;;;;5024004;28;20452;-82
2021/04/15 02:16:58;;;;;;;8.53;5.07;;;5.80;59.70;;;;;;5031714;28;20105;-83
2021/04/15 02:19:47;;;;;;;7.60;5.40;;;5.80;59.60;;;;;;5031158;28;20036;-83
2021/04/15 02:22:28;;;;;;;7.67;4.93;;;5.80;59.40;;;;;;5031881;28;20045;-82
2021/04/15 02:25:05;;;;;;;6.93;5.07;;;5.80;59.10;;;;;;5018778;28;20052;-82
2021/04/15 02:27:53;;;;;;;8.57;5.13;;;5.80;59.00;;;;;;5024537;28;20428;-83
2021/04/15 02:30:24;;;;;;;9.90;5.27;;;5.80;58.90;;;;;;5018144;28;20073;-82
2021/04/15 02:33:26;;;;;;;6.27;5.20;;;5.80;58.80;;;;;;5025735;28;20021;-83
2021/04/15 02:35:56;;;;;;;8.33;5.17;;;5.80;58.70;;;;;;5029889;28;20083;-83
2021/04/15 02:38:33;;;;;;;8.67;5.23;;;5.80;58.70;;;;;;5018699;28;20034;-83
2021/04/15 02:41:02;;;;;;;7.40;4.90;;;5.80;58.70;;;;;;5029709;28;20084;-83
2021/04/15 02:43:36;;;;;;;8.30;5.80;;;5.70;58.70;;;;;;5030749;28;20479;-82
2021/04/15 02:46:15;;;;;;;11.00;5.83;;;5.70;58.60;;;;;;5030867;28;20028;-82
2021/04/15 02:48:42;;;;;;;7.47;5.43;;;5.70;58.70;;;;;;5032218;28;20032;-82
2021/04/15 02:51:13;;;;;;;7.37;5.83;;;5.70;58.60;;;;;;5028369;28;20026;-83
2021/04/15 02:53:46;;;;;;;8.40;5.37;;;5.70;58.60;;;;;;5033922;28;20095;-82
2021/04/15 02:56:25;;;;;;;8.63;5.43;;;5.70;58.60;;;;;;5025377;28;20064;-82
2021/04/15 02:59:06;;;;;;;8.83;5.37;;;5.80;58.50;;;;;;5029055;28;20092;-83
2021/04/15 03:01:40;;;;;;;10.83;6.00;;;5.80;58.40;;;;;;5024908;28;20132;-82
2021/04/15 03:04:11;;;;;;;7.40;5.50;;;5.70;58.20;;;;;;5033932;28;20018;-83
2021/04/15 03:06:37;;;;;;;5.57;4.70;;;5.80;58.10;;;;;;5029441;28;20022;-83
2021/04/15 03:09:09;;;;;;;6.67;4.83;;;5.70;58.10;;;;;;5024896;28;20033;-83
2021/04/15 03:11:50;;;;;;;6.50;4.93;;;5.70;58.00;;;;;;5034419;28;20030;-83
2021/04/15 03:14:25;;;;;;;7.83;6.23;;;5.70;57.90;;;;;;5033877;28;20036;-83
2021/04/15 03:16:57;;;;;;;8.87;5.80;;;5.60;57.70;;;;;;5034321;28;20072;-82
2021/04/15 03:19:33;;;;;;;9.53;5.50;;;5.60;58.00;;;;;;5032049;28;20067;-83
2021/04/15 03:22:22;;;;;;;8.77;5.60;;;5.60;58.10;;;;;;5033613;28;20029;-82
2021/04/15 03:24:54;;;;;;;9.67;5.73;;;5.50;58.20;;;;;;5035115;28;20033;-82
2021/04/15 03:28:01;;;;;;;7.38;5.57;;;5.50;58.30;;;;;;5033160;28;20036;-83
2021/04/15 03:30:38;;;;;;;8.47;6.13;;;5.40;58.30;;;;;;4981570;28;20525;-82
2021/04/15 03:33:16;;;;;;;7.43;6.07;;;5.40;58.50;;;;;;5033747;28;20022;-83
2021/04/15 03:35:47;;;;;;;10.50;6.27;;;5.30;58.50;;;;;;5033959;28;20029;-82
2021/04/15 03:38:33;;;;;;;7.10;4.97;;;5.30;58.50;;;;;;5029589;28;20026;-83
2021/04/15 03:41:27;;;;;;;8.17;5.87;;;5.30;58.50;;;;;;5020301;28;20500;-82
2021/04/15 03:44:16;;;;;;;6.83;5.33;;;5.30;58.40;;;;;;5033336;28;20104;-82
2021/04/15 03:47:06;;;;;;;7.60;6.03;;;5.20;58.20;;;;;;5032925;28;20033;-82
2021/04/15 03:49:50;;;;;;;6.50;5.40;;;5.10;58.30;;;;;;5033468;28;20021;-82
2021/04/15 03:52:20;;;;;;;7.70;5.27;;;5.00;58.30;;;;;;5032686;28;20033;-83
2021/04/15 03:54:50;;;;;;;7.37;4.93;;;4.90;58.40;;;;;;5013510;28;20045;-83
2021/04/15 03:57:18;;;;;;;7.37;4.70;;;4.80;58.40;;;;;;5023170;28;20030;-82
2021/04/15 03:59:53;;;;;;;7.50;5.00;;;4.90;58.30;;;;;;5033143;28;20029;-83
2021/04/15 04:02:39;;;;;;;10.20;5.00;;;5.00;58.30;;;;;;5033027;28;20493;-82
2021/04/15 04:05:28;;;;;;;9.03;4.60;;;5.00;58.10;;;;;;5033411;28;20029;-82
2021/04/15 04:07:59;;;;;;;5.60;4.40;;;4.90;58.10;;;;;;5043074;28;20022;-82
2021/04/15 04:10:40;;;;;;;6.20;4.17;;;5.00;58.10;;;;;;5032111;28;20021;-82
2021/04/15 04:13:09;;;;;;;6.03;4.37;;;5.10;58.00;;;;;;5032040;28;20106;-82
2021/04/15 04:15:40;;;;;;;5.40;4.43;;;5.10;57.80;;;;;;5033042;28;20044;-82
2021/04/15 04:18:14;;;;;;;10.40;4.80;;;5.10;57.70;;;;;;5033239;28;20535;-82
2021/04/15 04:20:42;;;;;;;7.43;4.97;;;5.20;57.80;;;;;;5025031;28;20038;-82
2021/04/15 04:23:26;;;;;;;12.37;5.63;;;5.20;57.70;;;;;;5034104;28;20408;-82
2021/04/15 04:26:19;;;;;;;8.57;5.17;;;5.20;57.80;;;;;;5032588;28;20119;-82
2021/04/15 04:29:27;;;;;;;12.37;5.77;;;5.20;57.90;;;;;;5033229;28;20022;-82
2021/04/15 04:31:57;;;;;;;8.60;5.53;;;5.20;58.10;;;;;;5032369;28;20021;-82
2021/04/15 04:34:24;;;;;;;8.20;5.57;;;5.20;58.10;;;;;;5032647;28;20031;-82
2021/04/15 04:36:53;;;;;;;8.63;6.40;;;5.20;58.10;;;;;;5032278;28;20129;-82
2021/04/15 04:39:21;;;;;;;8.93;5.87;;;5.20;58.20;;;;;;5033466;28;20540;-82
2021/04/15 04:41:53;;;;;;;10.70;6.20;;;5.10;58.10;;;;;;5016756;28;20028;-82
2021/04/15 04:44:40;;;;;;;9.00;5.83;;;5.10;58.50;;;;;;5027067;28;20022;-83
2021/04/15 04:47:17;;;;;;;13.13;5.90;;;5.10;58.50;;;;;;5029276;28;20029;-83
2021/04/15 04:49:51;;;;;;;9.67;6.23;;;5.20;58.50;;;;;;5037642;28;20021;-83
2021/04/15 04:52:27;;;;;;;9.73;6.47;;;5.30;58.50;;;;;;5033172;28;20440;-83
2021/04/15 04:54:53;;;;;;;16.90;7.10;;;5.30;58.30;;;;;;5020225;28;20140;-83
2021/04/15 04:57:41;;;;;;;13.97;7.43;;;5.30;58.30;;;;;;5030578;28;20037;-82
2021/04/15 05:00:15;;;;;;;17.87;7.60;;;5.30;58.50;;;;;;5029527;28;20061;-83
2021/04/15 05:02:41;;;;;;;10.50;7.47;;;5.30;58.60;;;;;;5026982;28;20124;-82
2021/04/15 05:05:17;;;;;;;15.77;7.60;;;5.30;58.70;;;;;;5033412;28;20049;-83
2021/04/15 05:07:45;;;;;;;14.10;7.63;;;5.40;58.70;;;;;;5022592;28;20473;-82
2021/04/15 05:10:18;;;;;;;9.90;6.87;;;5.40;58.70;;;;;;5020901;28;20022;-83
2021/04/15 05:12:47;;;;;;;10.17;5.80;;;5.40;58.70;;;;;;5032110;28;20551;-82
2021/04/15 05:15:13;;;;;;;12.63;6.57;;;5.40;58.50;;;;;;5018408;28;20025;-83
2021/04/15 05:17:41;;;;;;;12.27;6.67;;;5.40;58.50;;;;;;5033378;28;20041;-83
2021/04/15 05:20:13;;;;;;;15.57;6.67;;;5.40;58.60;;;;;;5031650;28;20044;-83
2021/04/15 05:22:51;;;;;;;10.97;6.27;;;5.40;58.50;;;;;;5031769;28;20032;-83
2021/04/15 05:25:46;;;;;;;9.77;5.57;;;5.40;58.50;;;;;;5032114;28;20026;-83
2021/04/15 05:28:15;;;;;;;10.87;6.67;;;5.40;58.50;;;;;;5013876;28;20037;-82
2021/04/15 05:30:50;;;;;;;11.20;6.73;;;5.30;58.60;;;;;;5031792;28;20026;-82
2021/04/15 05:33:24;;;;;;;13.67;6.37;;;5.30;58.60;;;;;;5036450;28;20028;-83
2021/04/15 05:36:22;;;;;;;9.70;7.23;;;5.40;58.60;;;;;;5028547;28;20033;-82
2021/04/15 05:38:51;;;;;;;12.90;7.23;;;5.40;58.50;;;;;;5027535;28;20087;-83
2021/04/15 05:41:24;;;;;;;10.73;7.10;;;5.40;58.50;;;;;;5031286;28;20083;-83
2021/04/15 05:44:02;;;;;;;10.73;7.27;;;5.40;58.50;;;;;;5028718;28;20032;-83
2021/04/15 05:46:43;;;;;;;14.13;7.50;;;5.40;58.70;;;;;;5031367;28;20030;-83
2021/04/15 05:49:15;;;;;;;11.77;8.03;;;5.40;58.80;;;;;;5016539;28;20087;-83
2021/04/15 05:51:50;;;;;;;12.15;7.65;;;5.40;58.80;;;;;;5033017;28;20034;-83
2021/04/15 05:54:17;;;;;;;12.37;8.10;;;5.40;58.80;;;;;;5026867;28;20048;-83
2021/04/15 05:57:00;;;;;;;13.70;8.57;;;5.50;58.90;;;;;;5027610;28;20117;-83
2021/04/15 05:59:48;;;;;;;12.02;7.80;;;5.50;58.80;;;;;;5021731;28;20024;-83
2021/04/15 06:02:30;;;;;;;10.33;8.67;;;5.40;58.90;;;;;;5026697;28;20069;-83
2021/04/15 06:05:15;;;;;;;12.10;9.30;;;5.40;59.10;;;;;;5018233;28;20049;-82
2021/04/15 06:07:42;;;;;;;10.97;7.90;;;5.40;59.40;;;;;;5028423;28;20026;-83
2021/04/15 06:10:09;;;;;;;13.20;8.80;;;5.40;59.40;;;;;;5030484;28;20116;-83
2021/04/15 06:12:39;;;;;;;27.33;16.47;;;5.50;59.40;;;;;;5030859;28;20034;-83
2021/04/15 06:15:23;;;;;;;58.73;32.87;;;5.50;59.40;;;;;;5022673;28;20120;-83
2021/04/15 06:18:16;;;;;;;21.53;13.20;;;5.60;59.30;;;;;;5026071;28;20460;-83
2021/04/15 06:20:46;;;;;;;13.70;8.60;;;5.50;59.10;;;;;;5030092;28;20037;-83
2021/04/15 06:23:20;;;;;;;18.67;10.57;;;5.50;59.10;;;;;;5031367;28;20029;-83
2021/04/15 06:25:49;;;;;;;12.97;8.87;;;5.40;59.40;;;;;;5017753;28;20509;-83
2021/04/15 06:28:23;;;;;;;16.33;11.43;;;5.40;59.70;;;;;;5020891;28;20029;-83
2021/04/15 06:31:16;;;;;;;19.53;12.47;;;5.40;59.70;;;;;;5032235;28;20026;-83
2021/04/15 06:33:43;;;;;;;19.83;11.20;;;5.40;59.90;;;;;;5034856;28;20647;-83
2021/04/15 06:36:24;;;;;;;13.33;9.17;;;5.50;59.70;;;;;;5030903;28;20068;-83
2021/04/15 06:39:03;;;;;;;18.87;10.20;;;5.50;59.70;;;;;;5025935;28;20030;-83
2021/04/15 06:41:49;;;;;;;19.77;11.33;;;5.50;60.00;;;;;;5033283;28;20034;-83
2021/04/15 06:44:30;;;;;;;23.37;11.77;;;5.60;60.10;;;;;;5024916;28;20036;-83
2021/04/15 06:47:49;;;;;;;24.43;14.47;;;5.60;60.20;;;;;;5016466;28;20026;-83
2021/04/15 06:50:21;;;;;;;19.60;12.47;;;5.60;60.70;;;;;;4971365;28;20494;-82
2021/04/15 06:53:10;;;;;;;21.60;11.57;;;5.70;60.20;;;;;;5008690;28;20477;-83
2021/04/15 06:56:01;;;;;;;21.93;12.17;;;5.70;60.30;;;;;;5035779;28;20037;-83
2021/04/15 06:58:48;;;;;;;16.07;10.23;;;5.80;60.40;;;;;;5026033;28;20034;-83
2021/04/15 07:01:47;;;;;;;13.33;10.00;;;5.90;60.30;;;;;;5031722;28;20124;-83
2021/04/15 07:04:22;;;;;;;13.97;9.83;;;6.00;60.20;;;;;;5034289;28;20113;-83
2021/04/15 07:07:01;;;;;;;10.90;7.47;;;6.10;60.00;;;;;;5034276;28;20018;-83
2021/04/15 07:09:49;;;;;;;11.47;8.00;;;6.10;60.20;;;;;;5017981;28;20026;-83
2021/04/15 07:12:36;;;;;;;10.97;7.80;;;6.30;60.10;;;;;;5033426;28;20535;-83
2021/04/15 07:15:30;;;;;;;9.50;7.83;;;6.30;60.00;;;;;;5029972;28;20123;-84
2021/04/15 07:17:55;;;;;;;;;;;6.30;59.90;;;;;;5015061;28;20022;-83
2021/04/15 07:20:37;;;;;;;12.07;9.30;;;6.30;59.80;;;;;;5021111;28;20346;-83
2021/04/15 07:23:18;;;;;;;12.63;9.57;;;6.30;59.90;;;;;;5026098;28;20033;-83
2021/04/15 07:26:08;;;;;;;11.77;9.63;;;6.20;60.00;;;;;;5043982;28;20575;-83
2021/04/15 07:28:43;;;;;;;13.73;9.27;;;6.20;60.40;;;;;;5033775;28;20025;-83
2021/04/15 07:31:20;;;;;;;12.63;9.60;;;6.30;60.80;;;;;;5032142;28;20671;-83
2021/04/15 07:34:13;;;;;;;13.10;9.93;;;6.60;60.90;;;;;;5041970;28;20120;-83
2021/04/15 07:36:59;;;;;;;13.68;10.23;;;6.60;60.90;;;;;;5029974;28;20033;-83
2021/04/15 07:40:01;;;;;;;15.67;9.70;;;6.70;60.80;;;;;;5024754;28;20040;-83
2021/04/15 07:42:49;;;;;;;12.97;9.70;;;6.70;61.00;;;;;;5024183;28;20044;-83
2021/04/15 07:45:17;;;;;;;15.80;10.47;;;6.80;61.00;;;;;;5024780;28;20030;-83
2021/04/15 07:48:12;;;;;;;18.03;9.97;;;6.80;60.80;;;;;;5033663;28;20034;-82
2021/04/15 07:51:15;;;;;;;22.73;11.97;;;7.00;61.00;;;;;;5027487;28;20034;-83
2021/04/15 07:54:16;;;;;;;13.48;10.38;;;7.30;60.80;;;;;;5026192;28;20057;-83
2021/04/15 07:56:47;;;;;;;16.77;10.67;;;7.50;60.40;;;;;;5023999;28;20111;-83
2021/04/15 07:59:58;;;;;;;19.47;11.13;;;7.50;60.30;;;;;;5041705;28;20498;-83
2021/04/15 08:02:51;;;;;;;12.73;8.57;;;7.50;59.80;;;;;;5001020;28;20812;-83
2021/04/15 08:05:39;;;;;;;11.25;9.07;;;7.50;59.60;;;;;;5026937;28;20030;-83
2021/04/15 08:08:39;;;;;;;13.83;9.40;;;7.80;59.40;;;;;;5049510;28;20033;-85
2021/04/15 08:11:26;;;;;;;12.60;9.70;;;8.10;58.90;;;;;;5031452;28;20481;-83
2021/04/15 08:14:29;;;;;;;14.50;8.43;;;8.40;58.90;;;;;;5038831;28;20034;-83
2021/04/15 08:17:01;;;;;;;13.03;9.00;;;8.50;58.40;;;;;;5010596;28;20044;-83
2021/04/15 08:20:03;;;;;;;11.40;8.77;;;8.60;58.30;;;;;;5032817;28;20036;-83
2021/04/15 08:23:08;;;;;;;15.30;8.03;;;8.70;58.10;;;;;;5041415;28;20520;-83
2021/04/15 08:25:36;;;;;;;13.60;7.03;;;9.00;58.00;;;;;;5030520;28;20025;-83
2021/04/15 08:28:24;;;;;;;11.50;7.30;;;9.40;57.30;;;;;;5029446;28;20381;-83
2021/04/15 08:31:07;;;;;;;9.83;7.37;;;9.60;57.00;;;;;;5047399;28;20025;-83
2021/04/15 08:34:05;;;;;;;10.93;6.83;;;9.70;56.20;;;;;;5025421;28;20033;-83
2021/04/15 08:37:00;;;;;;;8.27;6.17;;;9.70;55.60;;;;;;5013960;28;20026;-83
2021/04/15 08:39:32;;;;;;;9.03;6.30;;;9.60;55.30;;;;;;5032880;28;20033;-83
2021/04/15 08:42:19;;;;;;;8.03;5.50;;;9.50;55.50;;;;;;5031319;28;20036;-83
2021/04/15 08:45:07;;;;;;;8.07;5.87;;;9.40;55.50;;;;;;5032537;28;20117;-83
2021/04/15 08:47:52;;;;;;;7.87;6.03;;;9.30;55.10;;;;;;5032714;28;20045;-83
2021/04/15 08:50:25;;;;;;;9.70;5.67;;;9.20;55.00;;;;;;5032342;28;20037;-83
2021/04/15 08:53:22;;;;;;;7.47;5.27;;;9.20;54.70;;;;;;5032231;28;20498;-83
2021/04/15 08:55:53;;;;;;;6.13;4.57;;;9.10;54.30;;;;;;5033830;28;20029;-82
2021/04/15 08:58:37;;;;;;;6.40;4.50;;;9.00;54.50;;;;;;5036586;28;20473;-83
2021/04/15 09:01:25;;;;;;;8.33;4.63;;;9.10;54.10;;;;;;5028529;28;20083;-83
2021/04/15 09:03:50;;;;;;;7.77;4.53;;;8.90;53.20;;;;;;5030968;28;20024;-83
2021/04/15 09:06:33;;;;;;;5.90;4.13;;;8.80;53.40;;;;;;5032971;28;20022;-82
2021/04/15 09:09:11;;;;;;;;;;;9.00;53.20;;;;;;5032285;28;20024;-83
2021/04/15 09:11:39;;;;;;;7.07;4.70;;;9.10;52.90;;;;;;5033243;28;19913;-83
2021/04/15 09:14:32;;;;;;;10.00;4.83;;;9.20;52.70;;;;;;5017640;28;20022;-83
2021/04/15 09:17:02;;;;;;;6.77;4.10;;;9.20;51.40;;;;;;5022806;28;20037;-83
2021/04/15 09:20:03;;;;;;;7.27;4.60;;;9.20;52.10;;;;;;5033365;28;20300;-83
2021/04/15 09:23:06;;;;;;;7.23;4.60;;;9.20;50.90;;;;;;5032115;28;20061;-83
2021/04/15 09:25:47;;;;;;;5.72;3.67;;;9.10;50.10;;;;;;5029558;28;20079;-83
2021/04/15 09:28:40;;;;;;;5.20;3.63;;;9.40;50.80;;;;;;5040700;28;20037;-83
2021/04/15 09:31:52;;;;;;;7.77;5.50;;;9.90;50.00;;;;;;5026951;28;20014;-83
2021/04/15 09:34:33;;;;;;;6.80;4.73;;;10.30;48.90;;;;;;5008987;28;20051;-82
2021/04/15 09:37:02;;;;;;;9.53;5.50;;;10.30;48.50;;;;;;5033038;28;20025;-82
2021/04/15 09:39:33;;;;;;;10.17;5.70;;;10.40;48.70;;;;;;5030768;28;20030;-83
2021/04/15 09:42:14;;;;;;;12.10;6.00;;;10.50;48.30;;;;;;5031450;28;20056;-83
2021/04/15 09:45:08;;;;;;;7.57;5.00;;;10.50;47.80;;;;;;5020927;28;20025;-82
2021/04/15 09:47:52;;;;;;;13.63;5.27;;;10.70;47.40;;;;;;5028364;28;20481;-82
2021/04/15 09:50:26;;;;;;;10.03;5.17;;;10.70;47.10;;;;;;5028052;28;20022;-82
2021/04/15 09:53:02;;;;;;;7.63;4.67;;;10.90;47.20;;;;;;5021473;28;20036;-82
2021/04/15 09:55:46;;;;;;;6.60;5.30;;;11.20;47.00;;;;;;5031329;28;20061;-82
2021/04/15 09:58:29;;;;;;;7.07;5.17;;;11.50;45.90;;;;;;5012964;28;20096;-82
2021/04/15 10:01:03;;;;;;;5.73;3.87;;;11.70;45.20;;;;;;5015968;28;20060;-82
2021/04/15 10:03:48;;;;;;;6.93;3.17;;;11.90;45.30;;;;;;5030027;28;20033;-82
2021/04/15 10:06:32;;;;;;;4.33;3.30;;;11.90;44.90;;;;;;5030519;28;20070;-83
2021/04/15 10:08:57;;;;;;;6.00;4.00;;;11.80;43.90;;;;;;5034308;28;20030;-83
2021/04/15 10:11:23;;;;;;;7.30;3.60;;;11.50;44.10;;;;;;5035507;28;20435;-82
2021/04/15 10:14:15;;;;;;;5.33;3.43;;;11.40;43.70;;;;;;5036296;28;20080;-83
2021/04/15 10:16:59;;;;;;;5.07;3.50;;;11.30;42.60;;;;;;5035269;28;20037;-82
2021/04/15 10:19:33;;;;;;;7.20;4.30;;;11.10;42.50;;;;;;5036287;28;20022;-82
2021/04/15 10:22:15;;;;;;;5.57;3.37;;;11.10;42.70;;;;;;5034768;28;20044;-82
2021/04/15 10:24:49;;;;;;;6.97;4.23;;;11.10;42.70;;;;;;5034449;28;20025;-84
2021/04/15 10:27:44;;;;;;;4.77;4.03;;;11.20;42.00;;;;;;5034851;28;20474;-83
2021/04/15 10:30:33;;;;;;;6.67;4.47;;;11.30;40.80;;;;;;5002074;28;20036;-83
2021/04/15 10:33:02;;;;;;;8.17;3.97;;;11.20;40.60;;;;;;5034004;28;20040;-83
2021/04/15 10:35:39;;;;;;;6.53;3.87;;;11.10;41.70;;;;;;5034992;28;20026;-83
2021/04/15 10:38:26;;;;;;;9.43;4.77;;;11.30;41.00;;;;;;5018405;28;20021;-83
2021/04/15 10:40:54;;;;;;;6.07;4.37;;;11.70;41.10;;;;;;5028233;28;20587;-83
2021/04/15 10:43:37;;;;;;;6.87;3.93;;;12.00;41.00;;;;;;5031731;28;20037;-83
2021/04/15 10:46:18;;;;;;;7.10;4.17;;;12.20;40.80;;;;;;5030101;28;20033;-83
2021/04/15 10:49:10;;;;;;;6.93;4.63;;;12.40;41.60;;;;;;5023861;28;20026;-83
2021/04/15 10:51:49;;;;;;;5.10;4.25;;;12.40;41.80;;;;;;5029151;28;20022;-83
2021/04/15 10:54:36;;;;;;;6.77;4.37;;;12.30;42.00;;;;;;5035548;28;20415;-82
2021/04/15 10:57:15;;;;;;;5.00;4.10;;;12.20;42.40;;;;;;5024188;28;20053;-82
2021/04/15 10:59:44;;;;;;;6.20;3.40;;;12.20;42.50;;;;;;5025223;28;20030;-83
2021/04/15 11:02:24;;;;;;;6.13;3.93;;;12.10;42.50;;;;;;5032253;28;20042;-82
2021/04/15 11:04:52;;;;;;;5.37;4.07;;;11.80;42.30;;;;;;5037310;28;20029;-83
2021/04/15 11:07:22;;;;;;;8.97;4.37;;;11.50;42.50;;;;;;5034137;28;20028;-83
2021/04/15 11:09:51;;;;;;;7.07;4.40;;;11.50;42.50;;;;;;5034708;28;20433;-83
2021/04/15 11:12:24;;;;;;;6.30;4.70;;;11.40;42.70;;;;;;5030850;28;20032;-83
2021/04/15 11:14:50;;;;;;;5.40;4.27;;;11.30;42.50;;;;;;5033863;28;20040;-83
2021/04/15 11:17:17;;;;;;;6.97;3.80;;;11.30;42.40;;;;;;5034451;28;20025;-83
2021/04/15 11:19:44;;;;;;;5.90;4.33;;;11.30;42.50;;;;;;5031815;28;20464;-83
2021/04/15 11:22:19;;;;;;;5.60;3.90;;;11.40;42.40;;;;;;5034344;28;20443;-83
2021/04/15 11:24:45;;;;;;;7.23;3.87;;;11.40;42.20;;;;;;5031989;28;20057;-83
2021/04/15 11:27:11;;;;;;;8.07;4.80;;;11.60;42.30;;;;;;5033704;28;20053;-83
2021/04/15 11:29:44;;;;;;;7.57;4.60;;;11.70;42.10;;;;;;5032313;28;20091;-83
2021/04/15 11:32:38;;;;;;;6.57;4.70;;;11.90;41.80;;;;;;5033433;28;20029;-84
2021/04/15 11:35:10;;;;;;;8.33;4.30;;;11.90;41.30;;;;;;5029604;28;20032;-83
2021/04/15 11:37:42;;;;;;;9.07;4.97;;;11.90;41.40;;;;;;5034887;28;20362;-83
2021/04/15 11:40:33;;;;;;;7.63;4.30;;;12.10;41.30;;;;;;5034750;28;20053;-83
2021/04/15 11:43:01;;;;;;;7.63;4.00;;;12.30;40.60;;;;;;5028058;28;20505;-83
2021/04/15 11:45:31;;;;;;;7.20;3.20;;;12.50;40.70;;;;;;5032927;28;20025;-82
2021/04/15 11:48:19;;;;;;;6.90;3.80;;;12.70;40.30;;;;;;5033042;28;20022;-82
2021/04/15 11:50:51;;;;;;;4.73;3.57;;;12.80;39.40;;;;;;5033635;28;20025;-82
2021/04/15 11:53:40;;;;;;;6.20;3.37;;;13.00;39.50;;;;;;5032853;28;20032;-83
2021/04/15 11:56:14;;;;;;;4.53;3.63;;;13.20;39.20;;;;;;5024481;28;20405;-83
2021/04/15 11:58:40;;;;;;;4.30;3.63;;;13.40;39.50;;;;;;5032803;28;20040;-84
2021/04/15 12:01:06;;;;;;;6.50;4.30;;;13.50;40.50;;;;;;5021494;28;20482;-83
2021/04/15 12:03:34;;;;;;;4.90;3.43;;;13.30;40.50;;;;;;5025694;28;20077;-83
2021/04/15 12:06:07;;;;;;;9.80;4.30;;;13.00;41.50;;;;;;5029655;28;20028;-83
2021/04/15 12:08:37;;;;;;;5.47;3.83;;;12.80;42.40;;;;;;5032093;28;21782;-83
2021/04/15 12:11:15;;;;;;;6.40;4.13;;;12.30;42.50;;;;;;5032999;28;20104;-83
2021/04/15 12:13:48;;;;;;;7.53;3.87;;;12.30;43.20;;;;;;5017282;28;20109;-83
2021/04/15 12:16:36;;;;;;;4.93;3.83;;;12.30;42.90;;;;;;5016962;28;20025;-83
2021/04/15 12:19:32;;;;;;;4.83;3.47;;;12.30;42.30;;;;;;5025661;28;20136;-83
2021/04/15 12:22:19;;;;;;;5.27;4.00;;;12.20;42.20;;;;;;5018324;28;20030;-84
2021/04/15 12:24:46;;;;;;;4.50;3.63;;;12.20;41.70;;;;;;5032438;28;20072;-83
2021/04/15 12:27:27;;;;;;;4.13;3.13;;;12.00;41.70;;;;;;5032722;28;20480;-82
2021/04/15 12:30:06;;;;;;;8.13;4.07;;;11.80;41.20;;;;;;5021179;28;20021;-82
2021/04/15 12:32:53;;;;;;;6.67;4.57;;;11.60;41.40;;;;;;5017153;28;20033;-82
2021/04/15 12:35:26;;;;;;;5.50;4.13;;;11.80;42.20;;;;;;5021270;28;20025;-82
2021/04/15 12:38:01;;;;;;;5.83;3.70;;;11.90;42.10;;;;;;5040487;28;20043;-82
2021/04/15 12:40:29;;;;;;;4.80;2.93;;;11.90;41.90;;;;;;5033707;28;20056;-81
2021/04/15 12:43:27;;;;;;;4.43;3.20;;;12.00;42.00;;;;;;5031513;28;20121;-82
2021/04/15 12:46:02;;;;;;;5.57;3.20;;;12.10;41.50;;;;;;5016758;28;20026;-82
2021/04/15 12:48:33;;;;;;;4.77;3.10;;;12.30;41.30;;;;;;5013904;28;20184;-82
2021/04/15 12:51:00;;;;;;;8.23;4.20;;;12.30;40.90;;;;;;5027203;28;20028;-82
2021/04/15 12:53:26;;;;;;;7.30;4.40;;;12.20;40.70;;;;;;5025125;28;20036;-82
2021/04/15 12:55:52;;;;;;;7.87;3.67;;;12.20;40.60;;;;;;5028039;28;20033;-82
2021/04/15 12:58:22;;;;;;;4.80;3.73;;;12.30;40.70;;;;;;5028303;28;20158;-82
2021/04/15 13:00:53;;;;;;;6.03;3.50;;;12.30;40.30;;;;;;5018159;28;20362;-84
2021/04/15 13:03:24;;;;;;;8.40;3.43;;;12.40;40.10;;;;;;5031920;28;20040;-83
2021/04/15 13:05:49;;;;;;;5.20;3.23;;;12.50;39.70;;;;;;5029611;28;20030;-83
2021/04/15 13:08:33;;;;;;;7.07;3.10;;;12.50;39.80;;;;;;5032069;28;20136;-83
2021/04/15 13:11:27;;;;;;;6.20;3.83;;;12.50;39.70;;;;;;5017927;28;20059;-83
2021/04/15 13:13:59;;;;;;;6.40;3.47;;;12.40;40.00;;;;;;5022919;28;20033;-83
2021/04/15 13:16:49;;;;;;;6.38;3.63;;;12.20;39.90;;;;;;5011973;28;20064;-83
2021/04/15 13:19:21;;;;;;;7.13;3.90;;;12.10;39.80;;;;;;5022716;28;20022;-83
2021/04/15 13:22:19;;;;;;;5.03;3.30;;;12.00;40.10;;;;;;5024515;28;20030;-84
2021/04/15 13:24:48;;;;;;;5.47;4.23;;;12.00;40.20;;;;;;4996368;28;20280;-84
2021/04/15 13:27:33;;;;;;;5.33;4.00;;;11.80;40.10;;;;;;5019343;28;20091;-85
2021/04/15 13:30:19;;;;;;;7.10;5.73;;;11.70;40.70;;;;;;5029038;28;20029;-84
2021/04/15 13:33:12;;;;;;;6.43;4.20;;;11.50;42.00;;;;;;5029177;28;20145;-83
2021/04/15 13:36:00;;;;;;;8.70;5.18;;;11.50;43.00;;;;;;5045924;28;20053;-83
2021/04/15 13:38:31;;;;;;;6.33;4.60;;;11.40;43.30;;;;;;5045083;28;20038;-83
2021/04/15 13:41:03;;;;;;;10.83;4.97;;;11.30;43.60;;;;;;5027535;28;20037;-83
2021/04/15 13:43:33;;;;;;;5.97;4.13;;;11.30;44.30;;;;;;5031727;28;20120;-84
2021/04/15 13:46:23;;;;;;;6.13;3.90;;;11.40;44.50;;;;;;5027585;28;20478;-84
2021/04/15 13:49:21;;;;;;;7.23;4.63;;;11.50;44.90;;;;;;5031384;28;20037;-83